富士山静岡空港METAR/TAF(約33km東):

RJNS 190800Z 25010KT 9999 FEW025 SCT045 BKN060 10/01 Q1017

TAF RJNS 190506Z 1906/2012 26016KT 9999 FEW030 TEMPO 1906/1908 26020G30KT

ソアリング用気象予報:
BLIPMAP 中部地方
中部日本航空連盟および大野グライダークラブの支援により運営されているソアリング用気象予報BLIPMAPの中部地方版です。

風向風力(Windy.com):
スマホでの閲覧には、アプリ版Windy(Android/iOS)が適切です。

EGC Icon